sensor_id;sensor_type;location;lat;lon;timestamp;temperature;humidity
24254;DHT22;12381;51.152;4.172;2022-09-30T00:01:29;11.60;99.90
24254;DHT22;12381;51.152;4.172;2022-09-30T00:03:57;11.50;99.90
24254;DHT22;12381;51.152;4.172;2022-09-30T00:06:24;11.50;99.90
24254;DHT22;12381;51.152;4.172;2022-09-30T00:08:50;11.40;99.90
24254;DHT22;12381;51.152;4.172;2022-09-30T00:11:20;11.50;99.90
24254;DHT22;12381;51.152;4.172;2022-09-30T00:16:19;11.50;99.90
24254;DHT22;12381;51.152;4.172;2022-09-30T00:18:46;11.40;99.90
24254;DHT22;12381;51.152;4.172;2022-09-30T00:21:13;11.30;99.90
24254;DHT22;12381;51.152;4.172;2022-09-30T00:23:41;11.30;99.90
24254;DHT22;12381;51.152;4.172;2022-09-30T00:26:10;11.30;99.90
24254;DHT22;12381;51.152;4.172;2022-09-30T00:28:37;11.30;99.90
24254;DHT22;12381;51.152;4.172;2022-09-30T00:31:05;11.40;99.90
24254;DHT22;12381;51.152;4.172;2022-09-30T00:33:32;11.30;99.90
24254;DHT22;12381;51.152;4.172;2022-09-30T00:35:58;11.30;99.90
24254;DHT22;12381;51.152;4.172;2022-09-30T00:38:24;11.30;99.90
24254;DHT22;12381;51.152;4.172;2022-09-30T00:40:50;11.20;99.90
24254;DHT22;12381;51.152;4.172;2022-09-30T00:45:53;11.20;99.90
24254;DHT22;12381;51.152;4.172;2022-09-30T00:48:25;11.20;99.90
24254;DHT22;12381;51.152;4.172;2022-09-30T00:54:00;11.10;99.90
24254;DHT22;12381;51.152;4.172;2022-09-30T00:56:31;11.00;99.90
24254;DHT22;12381;51.152;4.172;2022-09-30T00:59:09;11.00;99.90
24254;DHT22;12381;51.152;4.172;2022-09-30T01:01:38;11.00;99.90
24254;DHT22;12381;51.152;4.172;2022-09-30T01:06:39;11.20;99.90
24254;DHT22;12381;51.152;4.172;2022-09-30T01:09:05;11.10;99.90
24254;DHT22;12381;51.152;4.172;2022-09-30T01:11:31;11.00;99.90
24254;DHT22;12381;51.152;4.172;2022-09-30T01:14:01;11.00;99.90
24254;DHT22;12381;51.152;4.172;2022-09-30T01:33:14;11.00;99.90
24254;DHT22;12381;51.152;4.172;2022-09-30T01:38:49;10.80;99.90
24254;DHT22;12381;51.152;4.172;2022-09-30T01:49:48;10.90;99.90
24254;DHT22;12381;51.152;4.172;2022-09-30T01:55:32;11.10;99.90
24254;DHT22;12381;51.152;4.172;2022-09-30T01:58:12;11.10;99.90
24254;DHT22;12381;51.152;4.172;2022-09-30T02:00:42;11.00;99.90
24254;DHT22;12381;51.152;4.172;2022-09-30T02:03:14;11.00;99.90
24254;DHT22;12381;51.152;4.172;2022-09-30T02:08:30;10.90;99.90
24254;DHT22;12381;51.152;4.172;2022-09-30T02:11:05;10.80;99.90
24254;DHT22;12381;51.152;4.172;2022-09-30T02:13:49;10.90;99.90
24254;DHT22;12381;51.152;4.172;2022-09-30T02:16:36;10.80;99.90
24254;DHT22;12381;51.152;4.172;2022-09-30T02:19:18;10.80;99.90
24254;DHT22;12381;51.152;4.172;2022-09-30T02:21:52;10.80;99.90
24254;DHT22;12381;51.152;4.172;2022-09-30T02:24:32;10.80;99.90
24254;DHT22;12381;51.152;4.172;2022-09-30T02:27:07;11.00;99.90
24254;DHT22;12381;51.152;4.172;2022-09-30T02:29:36;10.90;99.90
24254;DHT22;12381;51.152;4.172;2022-09-30T02:32:14;10.90;99.90
24254;DHT22;12381;51.152;4.172;2022-09-30T02:34:47;10.80;99.90
24254;DHT22;12381;51.152;4.172;2022-09-30T02:39:59;10.70;99.90
24254;DHT22;12381;51.152;4.172;2022-09-30T02:42:28;10.70;99.90
24254;DHT22;12381;51.152;4.172;2022-09-30T02:45:00;10.70;99.90
24254;DHT22;12381;51.152;4.172;2022-09-30T02:50:19;10.70;99.90
24254;DHT22;12381;51.152;4.172;2022-09-30T02:58:19;10.60;99.90
24254;DHT22;12381;51.152;4.172;2022-09-30T03:00:47;10.70;99.90
24254;DHT22;12381;51.152;4.172;2022-09-30T03:05:49;10.70;99.90
24254;DHT22;12381;51.152;4.172;2022-09-30T03:08:15;10.70;99.90
24254;DHT22;12381;51.152;4.172;2022-09-30T03:10:41;10.60;99.90
24254;DHT22;12381;51.152;4.172;2022-09-30T03:16:35;10.60;99.90
24254;DHT22;12381;51.152;4.172;2022-09-30T03:30:04;10.60;99.90
24254;DHT22;12381;51.152;4.172;2022-09-30T03:33:18;10.60;99.90
24254;DHT22;12381;51.152;4.172;2022-09-30T03:43:56;10.60;99.90
24254;DHT22;12381;51.152;4.172;2022-09-30T03:46:46;10.50;99.90
24254;DHT22;12381;51.152;4.172;2022-09-30T03:49:14;10.50;99.90
24254;DHT22;12381;51.152;4.172;2022-09-30T03:51:44;10.50;99.90
24254;DHT22;12381;51.152;4.172;2022-09-30T03:54:11;10.50;99.90
24254;DHT22;12381;51.152;4.172;2022-09-30T03:56:38;10.40;99.90
24254;DHT22;12381;51.152;4.172;2022-09-30T03:59:26;10.40;99.90
24254;DHT22;12381;51.152;4.172;2022-09-30T04:01:53;10.50;99.90
24254;DHT22;12381;51.152;4.172;2022-09-30T04:04:19;10.50;99.90
24254;DHT22;12381;51.152;4.172;2022-09-30T04:06:45;10.40;99.90
24254;DHT22;12381;51.152;4.172;2022-09-30T04:09:11;10.40;99.90
24254;DHT22;12381;51.152;4.172;2022-09-30T04:11:42;10.40;99.90
24254;DHT22;12381;51.152;4.172;2022-09-30T04:14:07;10.40;99.90
24254;DHT22;12381;51.152;4.172;2022-09-30T04:16:33;10.50;99.90
24254;DHT22;12381;51.152;4.172;2022-09-30T04:18:59;10.50;99.90
24254;DHT22;12381;51.152;4.172;2022-09-30T04:21:25;10.40;99.90
24254;DHT22;12381;51.152;4.172;2022-09-30T04:23:54;10.30;99.90
24254;DHT22;12381;51.152;4.172;2022-09-30T04:26:19;10.30;99.90
24254;DHT22;12381;51.152;4.172;2022-09-30T04:28:45;10.30;99.90
24254;DHT22;12381;51.152;4.172;2022-09-30T04:31:12;10.40;99.90
24254;DHT22;12381;51.152;4.172;2022-09-30T04:33:39;10.30;99.90
24254;DHT22;12381;51.152;4.172;2022-09-30T04:36:05;10.30;99.90
24254;DHT22;12381;51.152;4.172;2022-09-30T04:38:31;10.30;99.90
24254;DHT22;12381;51.152;4.172;2022-09-30T04:41:01;10.30;99.90
24254;DHT22;12381;51.152;4.172;2022-09-30T04:43:28;10.40;99.90
24254;DHT22;12381;51.152;4.172;2022-09-30T04:45:54;10.50;99.90
24254;DHT22;12381;51.152;4.172;2022-09-30T04:48:21;10.40;99.90
24254;DHT22;12381;51.152;4.172;2022-09-30T04:50:47;10.30;99.90
24254;DHT22;12381;51.152;4.172;2022-09-30T04:53:14;10.30;99.90
24254;DHT22;12381;51.152;4.172;2022-09-30T04:55:41;10.30;99.90
24254;DHT22;12381;51.152;4.172;2022-09-30T04:58:07;10.30;99.90
24254;DHT22;12381;51.152;4.172;2022-09-30T05:00:33;10.30;99.90
24254;DHT22;12381;51.152;4.172;2022-09-30T05:02:59;10.30;99.90
24254;DHT22;12381;51.152;4.172;2022-09-30T05:05:24;10.40;99.90
24254;DHT22;12381;51.152;4.172;2022-09-30T05:07:50;10.40;99.90
24254;DHT22;12381;51.152;4.172;2022-09-30T05:10:15;10.40;99.90
24254;DHT22;12381;51.152;4.172;2022-09-30T05:12:42;10.30;99.90
24254;DHT22;12381;51.152;4.172;2022-09-30T05:15:08;10.20;99.90
24254;DHT22;12381;51.152;4.172;2022-09-30T05:17:35;10.20;99.90
24254;DHT22;12381;51.152;4.172;2022-09-30T05:20:01;10.20;99.90
24254;DHT22;12381;51.152;4.172;2022-09-30T05:22:27;10.20;99.90
24254;DHT22;12381;51.152;4.172;2022-09-30T05:24:53;10.20;99.90
24254;DHT22;12381;51.152;4.172;2022-09-30T05:27:23;10.20;99.90
24254;DHT22;12381;51.152;4.172;2022-09-30T05:29:49;10.20;99.90
24254;DHT22;12381;51.152;4.172;2022-09-30T05:32:15;10.20;99.90
24254;DHT22;12381;51.152;4.172;2022-09-30T05:34:41;10.20;99.90
24254;DHT22;12381;51.152;4.172;2022-09-30T05:37:07;10.20;99.90
24254;DHT22;12381;51.152;4.172;2022-09-30T05:39:34;10.10;99.90
24254;DHT22;12381;51.152;4.172;2022-09-30T05:42:00;10.20;99.90
24254;DHT22;12381;51.152;4.172;2022-09-30T05:44:25;10.10;99.90
24254;DHT22;12381;51.152;4.172;2022-09-30T05:46:51;10.10;99.90
24254;DHT22;12381;51.152;4.172;2022-09-30T05:49:17;10.00;99.90
24254;DHT22;12381;51.152;4.172;2022-09-30T05:51:42;10.00;99.90
24254;DHT22;12381;51.152;4.172;2022-09-30T05:54:09;10.00;99.90
24254;DHT22;12381;51.152;4.172;2022-09-30T05:56:35;10.00;99.90
24254;DHT22;12381;51.152;4.172;2022-09-30T05:59:03;10.00;99.90
24254;DHT22;12381;51.152;4.172;2022-09-30T06:01:29;10.00;99.90
24254;DHT22;12381;51.152;4.172;2022-09-30T06:03:55;9.90;99.90
24254;DHT22;12381;51.152;4.172;2022-09-30T06:06:21;10.00;99.90
24254;DHT22;12381;51.152;4.172;2022-09-30T06:08:47;10.00;99.90
24254;DHT22;12381;51.152;4.172;2022-09-30T06:11:17;9.90;99.90
24254;DHT22;12381;51.152;4.172;2022-09-30T06:13:44;9.90;99.90
24254;DHT22;12381;51.152;4.172;2022-09-30T06:16:10;10.00;99.90
24254;DHT22;12381;51.152;4.172;2022-09-30T06:21:10;10.00;99.90
24254;DHT22;12381;51.152;4.172;2022-09-30T06:23:36;10.00;99.90
24254;DHT22;12381;51.152;4.172;2022-09-30T06:26:04;10.00;99.90
24254;DHT22;12381;51.152;4.172;2022-09-30T06:28:30;10.00;99.90
24254;DHT22;12381;51.152;4.172;2022-09-30T06:31:02;10.10;99.90
24254;DHT22;12381;51.152;4.172;2022-09-30T06:33:29;10.10;99.90
24254;DHT22;12381;51.152;4.172;2022-09-30T06:35:55;10.20;99.90
24254;DHT22;12381;51.152;4.172;2022-09-30T06:38:20;10.20;99.90
24254;DHT22;12381;51.152;4.172;2022-09-30T06:40:48;10.20;99.90
24254;DHT22;12381;51.152;4.172;2022-09-30T06:43:17;10.20;99.90
24254;DHT22;12381;51.152;4.172;2022-09-30T06:45:44;10.20;99.90
24254;DHT22;12381;51.152;4.172;2022-09-30T06:48:10;10.20;99.90
24254;DHT22;12381;51.152;4.172;2022-09-30T06:50:36;10.30;99.90
24254;DHT22;12381;51.152;4.172;2022-09-30T06:53:06;10.20;99.90
24254;DHT22;12381;51.152;4.172;2022-09-30T06:55:33;10.20;99.90
24254;DHT22;12381;51.152;4.172;2022-09-30T06:58:00;10.20;99.90
24254;DHT22;12381;51.152;4.172;2022-09-30T07:00:26;10.30;99.90
24254;DHT22;12381;51.152;4.172;2022-09-30T07:02:54;10.30;99.90
24254;DHT22;12381;51.152;4.172;2022-09-30T07:05:21;10.30;99.90
24254;DHT22;12381;51.152;4.172;2022-09-30T07:07:47;10.40;99.90
24254;DHT22;12381;51.152;4.172;2022-09-30T07:10:13;10.50;99.90
24254;DHT22;12381;51.152;4.172;2022-09-30T07:12:39;10.60;99.90
24254;DHT22;12381;51.152;4.172;2022-09-30T07:15:06;10.70;99.90
24254;DHT22;12381;51.152;4.172;2022-09-30T07:17:32;10.70;99.90
24254;DHT22;12381;51.152;4.172;2022-09-30T07:19:58;10.80;99.90
24254;DHT22;12381;51.152;4.172;2022-09-30T07:22:23;10.70;99.90
24254;DHT22;12381;51.152;4.172;2022-09-30T07:24:56;10.80;99.90
24254;DHT22;12381;51.152;4.172;2022-09-30T07:27:23;10.80;99.90
24254;DHT22;12381;51.152;4.172;2022-09-30T07:29:50;10.90;99.90
24254;DHT22;12381;51.152;4.172;2022-09-30T07:32:16;11.00;99.90
24254;DHT22;12381;51.152;4.172;2022-09-30T07:34:44;11.00;99.90
24254;DHT22;12381;51.152;4.172;2022-09-30T07:37:11;11.10;99.90
24254;DHT22;12381;51.152;4.172;2022-09-30T07:42:47;11.20;99.90
24254;DHT22;12381;51.152;4.172;2022-09-30T07:45:13;11.20;99.90
24254;DHT22;12381;51.152;4.172;2022-09-30T07:47:41;11.30;99.90
24254;DHT22;12381;51.152;4.172;2022-09-30T07:50:06;11.30;99.90
24254;DHT22;12381;51.152;4.172;2022-09-30T07:52:35;11.40;99.90
24254;DHT22;12381;51.152;4.172;2022-09-30T07:55:00;11.40;99.90
24254;DHT22;12381;51.152;4.172;2022-09-30T07:57:26;11.40;99.90
24254;DHT22;12381;51.152;4.172;2022-09-30T07:59:51;11.50;99.90
24254;DHT22;12381;51.152;4.172;2022-09-30T08:02:18;11.60;99.90
24254;DHT22;12381;51.152;4.172;2022-09-30T08:04:43;11.70;99.90
24254;DHT22;12381;51.152;4.172;2022-09-30T08:07:10;11.60;99.90
24254;DHT22;12381;51.152;4.172;2022-09-30T08:09:36;11.70;99.90
24254;DHT22;12381;51.152;4.172;2022-09-30T08:12:02;11.70;99.90
24254;DHT22;12381;51.152;4.172;2022-09-30T08:14:29;11.70;99.90
24254;DHT22;12381;51.152;4.172;2022-09-30T08:16:54;11.70;99.90
24254;DHT22;12381;51.152;4.172;2022-09-30T08:19:23;11.70;99.90
24254;DHT22;12381;51.152;4.172;2022-09-30T08:21:50;11.80;99.90
24254;DHT22;12381;51.152;4.172;2022-09-30T08:24:18;11.80;99.90
24254;DHT22;12381;51.152;4.172;2022-09-30T08:26:44;11.80;99.90
24254;DHT22;12381;51.152;4.172;2022-09-30T08:29:10;12.00;99.90
24254;DHT22;12381;51.152;4.172;2022-09-30T08:31:37;12.00;99.90
24254;DHT22;12381;51.152;4.172;2022-09-30T08:34:03;12.00;99.90
24254;DHT22;12381;51.152;4.172;2022-09-30T08:36:29;12.00;99.90
24254;DHT22;12381;51.152;4.172;2022-09-30T08:38:55;12.10;99.90
24254;DHT22;12381;51.152;4.172;2022-09-30T08:47:01;12.30;99.90
24254;DHT22;12381;51.152;4.172;2022-09-30T08:52:26;12.40;99.90
24254;DHT22;12381;51.152;4.172;2022-09-30T08:54:53;12.60;99.90
24254;DHT22;12381;51.152;4.172;2022-09-30T08:57:20;12.60;99.90
24254;DHT22;12381;51.152;4.172;2022-09-30T08:59:48;12.70;99.90
24254;DHT22;12381;51.152;4.172;2022-09-30T09:05:05;12.80;99.90
24254;DHT22;12381;51.152;4.172;2022-09-30T09:07:37;12.80;99.90
24254;DHT22;12381;51.152;4.172;2022-09-30T09:13:03;13.10;99.90
24254;DHT22;12381;51.152;4.172;2022-09-30T09:15:51;13.40;99.90
24254;DHT22;12381;51.152;4.172;2022-09-30T09:18:30;13.40;99.90
24254;DHT22;12381;51.152;4.172;2022-09-30T09:26:17;13.50;99.90
24254;DHT22;12381;51.152;4.172;2022-09-30T09:29:05;13.50;99.90
24254;DHT22;12381;51.152;4.172;2022-09-30T09:31:33;13.60;99.90
24254;DHT22;12381;51.152;4.172;2022-09-30T09:34:00;13.70;99.90
24254;DHT22;12381;51.152;4.172;2022-09-30T09:45:03;14.00;99.90
24254;DHT22;12381;51.152;4.172;2022-09-30T09:47:33;14.00;99.90
24254;DHT22;12381;51.152;4.172;2022-09-30T09:50:00;14.00;99.90
24254;DHT22;12381;51.152;4.172;2022-09-30T09:57:37;14.30;99.90
24254;DHT22;12381;51.152;4.172;2022-09-30T10:00:09;14.40;99.90
24254;DHT22;12381;51.152;4.172;2022-09-30T10:03:18;14.60;99.90
24254;DHT22;12381;51.152;4.172;2022-09-30T10:06:12;14.80;99.90
24254;DHT22;12381;51.152;4.172;2022-09-30T10:08:39;15.00;99.90
24254;DHT22;12381;51.152;4.172;2022-09-30T10:11:24;15.10;99.90
24254;DHT22;12381;51.152;4.172;2022-09-30T10:13:55;15.50;99.90
24254;DHT22;12381;51.152;4.172;2022-09-30T10:16:32;15.70;99.90
24254;DHT22;12381;51.152;4.172;2022-09-30T10:19:01;15.80;99.90
24254;DHT22;12381;51.152;4.172;2022-09-30T10:21:28;16.10;99.90
24254;DHT22;12381;51.152;4.172;2022-09-30T10:23:55;16.40;99.90
24254;DHT22;12381;51.152;4.172;2022-09-30T10:26:42;16.80;99.90
24254;DHT22;12381;51.152;4.172;2022-09-30T10:29:28;17.20;99.90
24254;DHT22;12381;51.152;4.172;2022-09-30T10:31:59;17.30;99.90
24254;DHT22;12381;51.152;4.172;2022-09-30T10:34:37;17.60;99.90
24254;DHT22;12381;51.152;4.172;2022-09-30T10:37:19;17.80;99.90
24254;DHT22;12381;51.152;4.172;2022-09-30T10:39:59;17.90;99.90
24254;DHT22;12381;51.152;4.172;2022-09-30T10:42:28;18.10;99.90
24254;DHT22;12381;51.152;4.172;2022-09-30T10:44:57;18.30;99.90
24254;DHT22;12381;51.152;4.172;2022-09-30T10:47:26;18.40;99.90
24254;DHT22;12381;51.152;4.172;2022-09-30T10:49:57;18.50;99.90
24254;DHT22;12381;51.152;4.172;2022-09-30T10:52:31;18.80;99.90
24254;DHT22;12381;51.152;4.172;2022-09-30T10:54:58;18.90;99.90
24254;DHT22;12381;51.152;4.172;2022-09-30T10:57:31;19.00;99.90
24254;DHT22;12381;51.152;4.172;2022-09-30T11:00:13;19.10;99.90
24254;DHT22;12381;51.152;4.172;2022-09-30T11:07:43;19.00;99.90
24254;DHT22;12381;51.152;4.172;2022-09-30T11:10:27;19.10;99.90
24254;DHT22;12381;51.152;4.172;2022-09-30T11:13:05;19.20;99.90
24254;DHT22;12381;51.152;4.172;2022-09-30T11:18:33;19.10;99.90
24254;DHT22;12381;51.152;4.172;2022-09-30T11:21:09;19.00;99.90
24254;DHT22;12381;51.152;4.172;2022-09-30T11:23:45;18.90;99.90
24254;DHT22;12381;51.152;4.172;2022-09-30T11:31:36;18.60;99.90
24254;DHT22;12381;51.152;4.172;2022-09-30T11:36:59;18.80;99.90
24254;DHT22;12381;51.152;4.172;2022-09-30T11:44:45;19.20;99.90
24254;DHT22;12381;51.152;4.172;2022-09-30T11:58:16;19.40;99.90
24254;DHT22;12381;51.152;4.172;2022-09-30T12:00:48;19.30;99.90
24254;DHT22;12381;51.152;4.172;2022-09-30T12:03:24;19.30;99.90
24254;DHT22;12381;51.152;4.172;2022-09-30T12:08:34;19.10;99.90
24254;DHT22;12381;51.152;4.172;2022-09-30T12:11:11;18.80;99.90
24254;DHT22;12381;51.152;4.172;2022-09-30T12:13:42;18.50;99.90
24254;DHT22;12381;51.152;4.172;2022-09-30T12:16:22;18.10;99.90
24254;DHT22;12381;51.152;4.172;2022-09-30T12:18:52;18.00;99.90
24254;DHT22;12381;51.152;4.172;2022-09-30T12:21:50;17.70;99.90
24254;DHT22;12381;51.152;4.172;2022-09-30T12:24:36;17.70;99.90
24254;DHT22;12381;51.152;4.172;2022-09-30T12:27:04;17.60;99.90
24254;DHT22;12381;51.152;4.172;2022-09-30T12:29:38;17.60;99.90
24254;DHT22;12381;51.152;4.172;2022-09-30T12:32:49;17.80;99.90
24254;DHT22;12381;51.152;4.172;2022-09-30T12:46:14;18.70;99.90
24254;DHT22;12381;51.152;4.172;2022-09-30T12:48:43;18.80;99.90
24254;DHT22;12381;51.152;4.172;2022-09-30T12:51:30;18.80;99.90
24254;DHT22;12381;51.152;4.172;2022-09-30T12:54:04;18.80;99.90
24254;DHT22;12381;51.152;4.172;2022-09-30T12:56:31;18.80;99.90
24254;DHT22;12381;51.152;4.172;2022-09-30T13:01:16;18.70;99.90
24254;DHT22;12381;51.152;4.172;2022-09-30T13:03:45;18.70;99.90
24254;DHT22;12381;51.152;4.172;2022-09-30T13:06:14;18.60;99.90
24254;DHT22;12381;51.152;4.172;2022-09-30T13:11:39;18.60;99.90
24254;DHT22;12381;51.152;4.172;2022-09-30T13:19:51;18.60;99.90
24254;DHT22;12381;51.152;4.172;2022-09-30T13:40:42;18.80;99.90
24254;DHT22;12381;51.152;4.172;2022-09-30T13:43:16;18.90;99.90
24254;DHT22;12381;51.152;4.172;2022-09-30T13:45:44;18.90;99.90
24254;DHT22;12381;51.152;4.172;2022-09-30T13:48:14;18.90;99.90
24254;DHT22;12381;51.152;4.172;2022-09-30T13:50:44;18.70;99.90
24254;DHT22;12381;51.152;4.172;2022-09-30T13:55:50;18.80;99.90
24254;DHT22;12381;51.152;4.172;2022-09-30T13:58:37;18.70;99.90
24254;DHT22;12381;51.152;4.172;2022-09-30T14:04:40;18.60;99.90
24254;DHT22;12381;51.152;4.172;2022-09-30T14:13:12;18.20;99.90
24254;DHT22;12381;51.152;4.172;2022-09-30T14:23:43;18.20;99.90
24254;DHT22;12381;51.152;4.172;2022-09-30T14:29:21;18.30;99.90
24254;DHT22;12381;51.152;4.172;2022-09-30T14:31:49;18.30;99.90
24254;DHT22;12381;51.152;4.172;2022-09-30T14:34:15;18.30;99.90
24254;DHT22;12381;51.152;4.172;2022-09-30T14:36:43;18.30;99.90
24254;DHT22;12381;51.152;4.172;2022-09-30T14:39:25;18.30;99.90
24254;DHT22;12381;51.152;4.172;2022-09-30T14:41:59;18.40;99.90
24254;DHT22;12381;51.152;4.172;2022-09-30T14:44:30;18.40;99.90
24254;DHT22;12381;51.152;4.172;2022-09-30T14:46:58;18.40;99.90
24254;DHT22;12381;51.152;4.172;2022-09-30T14:49:34;18.30;99.90
24254;DHT22;12381;51.152;4.172;2022-09-30T14:52:03;18.30;99.90
24254;DHT22;12381;51.152;4.172;2022-09-30T14:54:30;18.30;99.90
24254;DHT22;12381;51.152;4.172;2022-09-30T14:56:58;18.20;99.90
24254;DHT22;12381;51.152;4.172;2022-09-30T14:59:30;18.20;99.90
24254;DHT22;12381;51.152;4.172;2022-09-30T15:02:11;18.20;99.90
24254;DHT22;12381;51.152;4.172;2022-09-30T15:04:46;18.10;99.90
24254;DHT22;12381;51.152;4.172;2022-09-30T15:07:13;18.10;99.90
24254;DHT22;12381;51.152;4.172;2022-09-30T15:09:41;18.00;99.90
24254;DHT22;12381;51.152;4.172;2022-09-30T15:12:20;18.00;99.90
24254;DHT22;12381;51.152;4.172;2022-09-30T15:14:55;17.90;99.90
24254;DHT22;12381;51.152;4.172;2022-09-30T15:19:57;17.70;99.90
24254;DHT22;12381;51.152;4.172;2022-09-30T15:22:25;17.70;99.90
24254;DHT22;12381;51.152;4.172;2022-09-30T15:24:52;17.80;99.90
24254;DHT22;12381;51.152;4.172;2022-09-30T15:27:22;17.80;99.90
24254;DHT22;12381;51.152;4.172;2022-09-30T15:29:59;17.80;99.90
24254;DHT22;12381;51.152;4.172;2022-09-30T15:32:33;17.80;99.90
24254;DHT22;12381;51.152;4.172;2022-09-30T15:35:15;17.80;99.90
24254;DHT22;12381;51.152;4.172;2022-09-30T15:37:41;17.60;99.90
24254;DHT22;12381;51.152;4.172;2022-09-30T15:40:14;17.60;99.90
24254;DHT22;12381;51.152;4.172;2022-09-30T15:42:54;17.50;99.90
24254;DHT22;12381;51.152;4.172;2022-09-30T15:45:31;17.50;99.90
24254;DHT22;12381;51.152;4.172;2022-09-30T15:48:00;17.40;99.90
24254;DHT22;12381;51.152;4.172;2022-09-30T15:50:44;17.30;99.90
24254;DHT22;12381;51.152;4.172;2022-09-30T15:55:54;17.30;99.90
24254;DHT22;12381;51.152;4.172;2022-09-30T15:58:31;17.40;99.90
24254;DHT22;12381;51.152;4.172;2022-09-30T16:01:41;17.30;99.90
24254;DHT22;12381;51.152;4.172;2022-09-30T16:14:25;17.10;99.90
24254;DHT22;12381;51.152;4.172;2022-09-30T16:16:56;17.00;99.90
24254;DHT22;12381;51.152;4.172;2022-09-30T16:19:23;17.10;99.90
24254;DHT22;12381;51.152;4.172;2022-09-30T16:21:50;17.00;99.90
24254;DHT22;12381;51.152;4.172;2022-09-30T16:27:23;16.90;99.90
24254;DHT22;12381;51.152;4.172;2022-09-30T16:29:51;16.90;99.90
24254;DHT22;12381;51.152;4.172;2022-09-30T16:32:17;16.80;99.90
24254;DHT22;12381;51.152;4.172;2022-09-30T16:34:43;16.80;99.90
24254;DHT22;12381;51.152;4.172;2022-09-30T16:37:11;16.70;99.90
24254;DHT22;12381;51.152;4.172;2022-09-30T16:39:37;16.70;99.90
24254;DHT22;12381;51.152;4.172;2022-09-30T16:42:04;16.60;99.90
24254;DHT22;12381;51.152;4.172;2022-09-30T16:44:30;16.70;99.90
24254;DHT22;12381;51.152;4.172;2022-09-30T16:46:59;16.60;99.90
24254;DHT22;12381;51.152;4.172;2022-09-30T16:49:25;16.50;99.90
24254;DHT22;12381;51.152;4.172;2022-09-30T16:51:58;16.50;99.90
24254;DHT22;12381;51.152;4.172;2022-09-30T16:54:23;16.40;99.90
24254;DHT22;12381;51.152;4.172;2022-09-30T16:56:49;16.50;99.90
24254;DHT22;12381;51.152;4.172;2022-09-30T16:59:16;16.50;99.90
24254;DHT22;12381;51.152;4.172;2022-09-30T17:01:42;16.40;99.90
24254;DHT22;12381;51.152;4.172;2022-09-30T17:04:09;16.40;99.90
24254;DHT22;12381;51.152;4.172;2022-09-30T17:06:36;16.40;99.90
24254;DHT22;12381;51.152;4.172;2022-09-30T17:09:03;16.40;99.90
24254;DHT22;12381;51.152;4.172;2022-09-30T17:11:31;16.30;99.90
24254;DHT22;12381;51.152;4.172;2022-09-30T17:16:31;16.20;99.90
24254;DHT22;12381;51.152;4.172;2022-09-30T17:18:57;16.20;99.90
24254;DHT22;12381;51.152;4.172;2022-09-30T17:21:24;16.10;99.90
24254;DHT22;12381;51.152;4.172;2022-09-30T17:23:51;16.00;99.90
24254;DHT22;12381;51.152;4.172;2022-09-30T17:26:17;16.00;99.90
24254;DHT22;12381;51.152;4.172;2022-09-30T17:28:43;16.00;99.90
24254;DHT22;12381;51.152;4.172;2022-09-30T17:31:10;15.90;99.90
24254;DHT22;12381;51.152;4.172;2022-09-30T17:33:38;15.90;99.90
24254;DHT22;12381;51.152;4.172;2022-09-30T17:36:06;15.80;99.90
24254;DHT22;12381;51.152;4.172;2022-09-30T17:38:32;15.70;99.90
24254;DHT22;12381;51.152;4.172;2022-09-30T17:40:59;15.70;99.90
24254;DHT22;12381;51.152;4.172;2022-09-30T17:43:36;15.60;99.90
24254;DHT22;12381;51.152;4.172;2022-09-30T17:46:02;15.60;99.90
24254;DHT22;12381;51.152;4.172;2022-09-30T17:48:28;15.50;99.90
24254;DHT22;12381;51.152;4.172;2022-09-30T17:50:53;15.50;99.90
24254;DHT22;12381;51.152;4.172;2022-09-30T17:53:20;15.40;99.90
24254;DHT22;12381;51.152;4.172;2022-09-30T17:55:47;15.40;99.90
24254;DHT22;12381;51.152;4.172;2022-09-30T17:58:16;15.40;99.90
24254;DHT22;12381;51.152;4.172;2022-09-30T18:00:43;15.40;99.90
24254;DHT22;12381;51.152;4.172;2022-09-30T18:03:09;15.40;99.90
24254;DHT22;12381;51.152;4.172;2022-09-30T18:05:35;15.30;99.90
24254;DHT22;12381;51.152;4.172;2022-09-30T18:08:01;15.30;99.90
24254;DHT22;12381;51.152;4.172;2022-09-30T18:10:27;15.30;99.90
24254;DHT22;12381;51.152;4.172;2022-09-30T18:12:54;15.30;99.90
24254;DHT22;12381;51.152;4.172;2022-09-30T18:15:21;15.30;99.90
24254;DHT22;12381;51.152;4.172;2022-09-30T18:17:47;15.30;99.90
24254;DHT22;12381;51.152;4.172;2022-09-30T18:20:13;15.30;99.90
24254;DHT22;12381;51.152;4.172;2022-09-30T18:22:39;15.30;99.90
24254;DHT22;12381;51.152;4.172;2022-09-30T18:25:05;15.30;99.90
24254;DHT22;12381;51.152;4.172;2022-09-30T18:27:53;15.30;99.90
24254;DHT22;12381;51.152;4.172;2022-09-30T18:30:21;15.30;99.90
24254;DHT22;12381;51.152;4.172;2022-09-30T18:32:51;15.30;99.90
24254;DHT22;12381;51.152;4.172;2022-09-30T18:35:19;15.20;99.90
24254;DHT22;12381;51.152;4.172;2022-09-30T18:37:46;15.20;99.90
24254;DHT22;12381;51.152;4.172;2022-09-30T18:40:14;15.20;99.90
24254;DHT22;12381;51.152;4.172;2022-09-30T18:42:44;15.20;99.90
24254;DHT22;12381;51.152;4.172;2022-09-30T18:45:10;15.20;99.90
24254;DHT22;12381;51.152;4.172;2022-09-30T18:47:38;15.20;99.90
24254;DHT22;12381;51.152;4.172;2022-09-30T18:50:06;15.20;99.90
24254;DHT22;12381;51.152;4.172;2022-09-30T18:52:32;15.30;99.90
24254;DHT22;12381;51.152;4.172;2022-09-30T18:54:58;15.30;99.90
24254;DHT22;12381;51.152;4.172;2022-09-30T18:57:23;15.30;99.90
24254;DHT22;12381;51.152;4.172;2022-09-30T18:59:49;15.30;99.90
24254;DHT22;12381;51.152;4.172;2022-09-30T19:02:14;15.30;99.90
24254;DHT22;12381;51.152;4.172;2022-09-30T19:04:42;15.30;99.90
24254;DHT22;12381;51.152;4.172;2022-09-30T19:07:08;15.20;99.90
24254;DHT22;12381;51.152;4.172;2022-09-30T19:09:34;15.30;99.90
24254;DHT22;12381;51.152;4.172;2022-09-30T19:11:59;15.30;99.90
24254;DHT22;12381;51.152;4.172;2022-09-30T19:14:26;15.20;99.90
24254;DHT22;12381;51.152;4.172;2022-09-30T19:16:54;15.20;99.90
24254;DHT22;12381;51.152;4.172;2022-09-30T19:19:20;15.20;99.90
24254;DHT22;12381;51.152;4.172;2022-09-30T19:21:48;15.20;99.90
24254;DHT22;12381;51.152;4.172;2022-09-30T19:24:13;15.20;99.90
24254;DHT22;12381;51.152;4.172;2022-09-30T19:26:41;15.20;99.90
24254;DHT22;12381;51.152;4.172;2022-09-30T19:29:09;15.20;99.90
24254;DHT22;12381;51.152;4.172;2022-09-30T19:31:36;15.20;99.90
24254;DHT22;12381;51.152;4.172;2022-09-30T19:34:02;15.20;99.90
24254;DHT22;12381;51.152;4.172;2022-09-30T19:36:28;15.20;99.90
24254;DHT22;12381;51.152;4.172;2022-09-30T19:38:57;15.20;99.90
24254;DHT22;12381;51.152;4.172;2022-09-30T19:41:25;15.20;99.90
24254;DHT22;12381;51.152;4.172;2022-09-30T19:43:54;15.20;99.90
24254;DHT22;12381;51.152;4.172;2022-09-30T19:46:21;15.20;99.90